Time;durP1;ratioP1;P1;durP2;ratioP2;P2;SDS_P1;SDS_P2;PMS_P1;PMS_P2;Temp;Humidity;BMP_temperature;BMP_pressure;BME280_temperature;BME280_humidity;BME280_pressure;Samples;Min_cycle;Max_cycle;Signal;HPM_P1;HPM_P2
2021/10/30 00:00:35;;;;;;;12.67;6.43;;;13.70;99.90;;;;;;5079673;28;20193;-90
2021/10/30 00:03:00;;;;;;;12.73;6.67;;;13.80;99.90;;;;;;5058948;28;20209;-89
2021/10/30 00:05:26;;;;;;;10.67;6.40;;;13.90;99.90;;;;;;5072681;28;20232;-90
2021/10/30 00:07:52;;;;;;;11.40;5.93;;;13.80;99.90;;;;;;5058740;28;20187;-88
2021/10/30 00:10:18;;;;;;;11.07;6.00;;;13.80;99.90;;;;;;5058891;28;20187;-89
2021/10/30 00:12:44;;;;;;;13.33;6.43;;;13.80;99.90;;;;;;5074702;28;20598;-89
2021/10/30 00:15:11;;;;;;;9.97;5.87;;;13.70;99.90;;;;;;5059239;28;20185;-89
2021/10/30 00:17:37;;;;;;;11.40;6.50;;;13.70;99.90;;;;;;5075522;28;20191;-87
2021/10/30 00:20:04;;;;;;;11.87;6.53;;;13.70;99.90;;;;;;5060266;28;20184;-89
2021/10/30 00:22:30;;;;;;;10.90;6.20;;;13.70;99.90;;;;;;5062800;28;20255;-88
2021/10/30 00:24:56;;;;;;;12.50;7.00;;;13.70;99.90;;;;;;5078547;28;20193;-88
2021/10/30 00:27:22;;;;;;;12.10;6.47;;;13.60;99.90;;;;;;5081378;28;20200;-88
2021/10/30 00:29:49;;;;;;;12.00;6.60;;;13.60;99.90;;;;;;5078921;28;20254;-88
2021/10/30 00:32:14;;;;;;;10.40;6.00;;;13.70;99.90;;;;;;5079036;28;20269;-88
2021/10/30 00:34:40;;;;;;;13.17;6.20;;;13.70;99.90;;;;;;5062915;28;20192;-89
2021/10/30 00:37:06;;;;;;;14.10;6.63;;;13.70;99.90;;;;;;5077036;28;20276;-89
2021/10/30 00:39:32;;;;;;;13.43;6.27;;;13.70;99.90;;;;;;5079652;28;20196;-89
2021/10/30 00:41:58;;;;;;;11.17;5.97;;;13.70;99.90;;;;;;5061452;28;20291;-88
2021/10/30 00:44:24;;;;;;;12.70;6.90;;;13.70;99.90;;;;;;5060954;28;20212;-87
2021/10/30 00:46:52;;;;;;;13.10;7.17;;;13.70;99.90;;;;;;5078628;28;20181;-88
2021/10/30 00:49:20;;;;;;;11.97;6.50;;;13.80;99.90;;;;;;5062662;28;20276;-87
2021/10/30 00:51:50;;;;;;;14.20;7.00;;;13.80;99.90;;;;;;5062958;28;20197;-88
2021/10/30 00:54:17;;;;;;;12.53;6.50;;;13.90;99.90;;;;;;5077030;28;20194;-90
2021/10/30 00:56:44;;;;;;;15.93;7.60;;;13.80;99.90;;;;;;5064267;28;20175;-88
2021/10/30 00:59:14;;;;;;;15.33;7.60;;;13.80;99.90;;;;;;5078863;28;20196;-88
2021/10/30 01:01:43;;;;;;;13.83;7.70;;;13.90;99.90;;;;;;5079023;28;20246;-88
2021/10/30 01:04:09;;;;;;;13.83;8.03;;;13.90;99.90;;;;;;5078802;28;20662;-88
2021/10/30 01:06:38;;;;;;;14.60;7.70;;;14.00;99.90;;;;;;5061202;28;21111;-88
2021/10/30 01:09:05;;;;;;;17.67;9.13;;;14.00;99.90;;;;;;5057937;28;20181;-89
2021/10/30 01:11:32;;;;;;;16.60;8.70;;;14.00;99.90;;;;;;5059800;28;20193;-89
2021/10/30 01:13:58;;;;;;;16.53;9.37;;;14.00;99.90;;;;;;5063271;28;20662;-89
2021/10/30 01:16:24;;;;;;;19.87;9.43;;;14.00;99.90;;;;;;5062017;28;20234;-89
2021/10/30 01:18:50;;;;;;;17.10;9.50;;;14.10;99.90;;;;;;5078835;28;20181;-88
2021/10/30 01:21:31;;;;;;;15.23;9.30;;;14.10;99.90;;;;;;5061442;28;20216;-89
2021/10/30 01:23:57;;;;;;;15.60;9.07;;;14.10;99.90;;;;;;5075368;28;20207;-88
2021/10/30 01:26:23;;;;;;;18.80;9.90;;;14.20;99.90;;;;;;5079810;28;20258;-88
2021/10/30 01:28:50;;;;;;;16.40;9.30;;;14.30;99.90;;;;;;5078990;28;20200;-89
2021/10/30 01:31:17;;;;;;;19.17;10.00;;;14.30;99.90;;;;;;5076238;28;20667;-88
2021/10/30 01:33:45;;;;;;;17.13;8.80;;;14.20;99.90;;;;;;5076960;28;20620;-88
2021/10/30 01:36:16;;;;;;;14.70;8.70;;;14.20;99.90;;;;;;5077637;28;20185;-88
2021/10/30 01:38:42;;;;;;;15.43;8.27;;;14.10;99.90;;;;;;5060593;28;20261;-87
2021/10/30 01:41:21;;;;;;;13.87;8.60;;;14.20;99.90;;;;;;5077383;28;20304;-91
2021/10/30 01:43:47;;;;;;;15.57;8.70;;;14.20;99.90;;;;;;5059521;28;20207;-88
2021/10/30 01:46:16;;;;;;;16.50;9.00;;;14.20;99.90;;;;;;5060292;28;20205;-88
2021/10/30 01:48:42;;;;;;;15.50;9.03;;;14.30;99.90;;;;;;5077435;28;20225;-87
2021/10/30 01:51:08;;;;;;;14.70;8.60;;;14.30;99.90;;;;;;5076539;28;20264;-88
2021/10/30 01:53:35;;;;;;;13.50;8.23;;;14.30;99.90;;;;;;5076911;28;20214;-88
2021/10/30 01:56:02;;;;;;;14.87;7.87;;;14.30;99.90;;;;;;5071797;28;20177;-89
2021/10/30 01:58:28;;;;;;;14.13;7.97;;;14.20;99.90;;;;;;5074914;28;20269;-88
2021/10/30 02:00:55;;;;;;;17.27;8.27;;;14.20;99.90;;;;;;5078545;28;20185;-87
2021/10/30 02:03:23;;;;;;;14.63;8.00;;;14.30;99.90;;;;;;5076109;28;20206;-88
2021/10/30 02:05:51;;;;;;;14.47;7.97;;;14.30;99.90;;;;;;5077221;28;20176;-89
2021/10/30 02:08:17;;;;;;;13.13;7.40;;;14.20;99.90;;;;;;5059530;28;20181;-89
2021/10/30 02:10:42;;;;;;;13.57;6.90;;;14.20;99.90;;;;;;5078141;28;20241;-88
2021/10/30 02:13:08;;;;;;;12.80;6.80;;;14.20;99.90;;;;;;5075964;28;20186;-88
2021/10/30 02:15:34;;;;;;;15.87;7.33;;;14.10;99.90;;;;;;5077484;28;20222;-88
2021/10/30 02:18:00;;;;;;;12.53;7.30;;;14.20;99.90;;;;;;5063578;28;20633;-89
2021/10/30 02:20:25;;;;;;;14.03;7.00;;;14.10;99.90;;;;;;5079299;28;20184;-89
2021/10/30 02:22:52;;;;;;;14.90;7.40;;;14.20;99.90;;;;;;5061419;28;20568;-89
2021/10/30 02:25:21;;;;;;;14.33;7.40;;;14.20;99.90;;;;;;5077148;28;20261;-89
2021/10/30 02:27:47;;;;;;;12.37;7.53;;;14.30;99.90;;;;;;5075806;28;20206;-89
2021/10/30 02:30:13;;;;;;;14.57;7.03;;;14.30;99.90;;;;;;5063194;28;20198;-88
2021/10/30 02:32:39;;;;;;;13.20;7.27;;;14.30;99.90;;;;;;5076998;28;20187;-88
2021/10/30 02:35:05;;;;;;;13.43;7.40;;;14.20;99.90;;;;;;5075869;28;20617;-89
2021/10/30 02:37:31;;;;;;;11.67;7.00;;;14.20;99.90;;;;;;5077588;28;20230;-88
2021/10/30 02:39:57;;;;;;;13.97;7.30;;;14.10;99.90;;;;;;5075800;28;20198;-87
2021/10/30 02:42:23;;;;;;;15.50;7.43;;;14.10;99.90;;;;;;5075181;28;20221;-89
2021/10/30 02:44:49;;;;;;;13.63;7.77;;;14.10;99.90;;;;;;5076129;28;20180;-88
2021/10/30 02:47:14;;;;;;;12.57;7.43;;;14.10;99.90;;;;;;5076332;28;20181;-88
2021/10/30 02:49:40;;;;;;;15.53;8.10;;;14.20;99.90;;;;;;5075721;28;20181;-89
2021/10/30 02:52:06;;;;;;;13.73;7.43;;;14.10;99.90;;;;;;5060106;28;20217;-89
2021/10/30 02:54:32;;;;;;;15.83;8.53;;;14.10;99.90;;;;;;5061130;28;20193;-87
2021/10/30 02:56:58;;;;;;;14.97;7.63;;;14.10;99.90;;;;;;5060598;28;20181;-87
2021/10/30 02:59:24;;;;;;;16.17;8.03;;;14.10;99.90;;;;;;5058866;28;20556;-88
2021/10/30 03:01:50;;;;;;;12.37;8.07;;;14.10;99.90;;;;;;5076847;28;20264;-90
2021/10/30 03:04:16;;;;;;;13.30;8.47;;;14.10;99.90;;;;;;5061471;28;20181;-90
2021/10/30 03:06:42;;;;;;;15.17;8.30;;;14.00;99.90;;;;;;5060615;28;20181;-87
2021/10/30 03:09:08;;;;;;;12.37;7.83;;;14.00;99.90;;;;;;5077639;28;20205;-89
2021/10/30 03:11:34;;;;;;;15.93;8.20;;;14.10;99.90;;;;;;5077033;28;20182;-89
2021/10/30 03:14:00;;;;;;;17.13;8.37;;;14.10;99.90;;;;;;5077787;28;20719;-87
2021/10/30 03:16:26;;;;;;;17.27;9.17;;;14.10;99.90;;;;;;5076611;28;20201;-87
2021/10/30 03:18:52;;;;;;;15.53;8.07;;;14.10;99.90;;;;;;5076704;28;20192;-86
2021/10/30 03:21:18;;;;;;;15.27;8.20;;;14.20;99.90;;;;;;5093240;28;20674;-87
2021/10/30 03:23:44;;;;;;;15.90;7.67;;;14.20;99.90;;;;;;5059260;28;20209;-87
2021/10/30 03:26:10;;;;;;;15.90;7.77;;;14.10;99.90;;;;;;5077029;28;20653;-89
2021/10/30 03:28:35;;;;;;;13.93;8.07;;;14.20;99.90;;;;;;5076942;28;20251;-87
2021/10/30 03:31:01;;;;;;;14.10;7.90;;;14.20;99.90;;;;;;5077012;28;20209;-87
2021/10/30 03:33:27;;;;;;;14.50;7.63;;;14.20;99.90;;;;;;5060539;28;20194;-88
2021/10/30 03:35:53;;;;;;;14.40;7.30;;;14.20;99.90;;;;;;5076005;28;20192;-88
2021/10/30 03:38:19;;;;;;;16.60;7.53;;;14.10;99.90;;;;;;5072580;28;20229;-89
2021/10/30 03:40:44;;;;;;;15.90;8.00;;;14.00;99.90;;;;;;5054150;28;20530;-88
2021/10/30 03:43:11;;;;;;;14.23;7.50;;;14.00;99.90;;;;;;5064599;28;20202;-87
2021/10/30 03:45:38;;;;;;;15.43;8.33;;;13.90;99.90;;;;;;5057589;28;20178;-86
2021/10/30 03:48:10;;;;;;;13.00;7.77;;;13.90;99.90;;;;;;5072962;28;20213;-87
2021/10/30 03:50:37;;;;;;;20.13;8.53;;;13.80;99.90;;;;;;5065208;28;20705;-88
2021/10/30 03:53:06;;;;;;;15.37;8.60;;;13.90;99.90;;;;;;5055401;28;20231;-88
2021/10/30 03:55:33;;;;;;;14.50;8.30;;;13.90;99.90;;;;;;5050583;28;20284;-87
2021/10/30 03:58:01;;;;;;;17.37;9.30;;;13.90;99.90;;;;;;5077032;28;20176;-87
2021/10/30 04:00:27;;;;;;;13.73;8.40;;;13.90;99.90;;;;;;5066640;28;20220;-87
2021/10/30 04:02:52;;;;;;;13.47;8.17;;;13.90;99.90;;;;;;5060475;28;20656;-87
2021/10/30 04:05:18;;;;;;;17.53;8.90;;;13.90;99.90;;;;;;5049669;28;20211;-87
2021/10/30 04:07:44;;;;;;;13.87;8.30;;;13.80;99.90;;;;;;5075008;28;20277;-87
2021/10/30 04:10:10;;;;;;;14.10;8.40;;;13.80;99.90;;;;;;5058964;28;20236;-87
2021/10/30 04:12:36;;;;;;;13.87;8.37;;;13.80;99.90;;;;;;5073907;28;20185;-87
2021/10/30 04:15:03;;;;;;;14.67;8.93;;;13.70;99.90;;;;;;5075464;28;20238;-87
2021/10/30 04:17:29;;;;;;;17.90;9.10;;;13.80;99.90;;;;;;5055347;28;20234;-88
2021/10/30 04:19:55;;;;;;;14.20;8.53;;;13.80;99.90;;;;;;5060267;28;20184;-87
2021/10/30 04:22:21;;;;;;;16.33;8.37;;;13.80;99.90;;;;;;5068429;28;20529;-87
2021/10/30 04:24:47;;;;;;;15.33;8.90;;;13.80;99.90;;;;;;5074136;28;20193;-86
2021/10/30 04:27:12;;;;;;;14.83;8.33;;;13.80;99.90;;;;;;5047357;28;20197;-88
2021/10/30 04:29:38;;;;;;;14.67;7.83;;;13.80;99.90;;;;;;5058411;28;20228;-87
2021/10/30 04:32:05;;;;;;;15.87;8.83;;;13.70;99.90;;;;;;5059541;28;20194;-87
2021/10/30 04:34:46;;;;;;;15.43;7.87;;;13.80;99.90;;;;;;5053073;28;20277;-87
2021/10/30 04:37:18;;;;;;;12.73;7.47;;;13.80;99.90;;;;;;5075770;28;20203;-86
2021/10/30 04:39:49;;;;;;;15.63;8.00;;;13.70;99.90;;;;;;5078471;28;20551;-87
2021/10/30 04:42:17;;;;;;;14.83;7.90;;;13.70;99.90;;;;;;5078981;28;20208;-87
2021/10/30 04:44:44;;;;;;;15.47;7.87;;;13.70;99.90;;;;;;5078749;28;20662;-87
2021/10/30 04:47:11;;;;;;;16.87;8.20;;;13.70;99.90;;;;;;5078079;28;20184;-86
2021/10/30 04:49:37;;;;;;;15.03;7.93;;;13.70;99.90;;;;;;5061245;28;20641;-86
2021/10/30 04:52:05;;;;;;;16.70;7.67;;;13.80;99.90;;;;;;5077504;28;20548;-87
2021/10/30 04:54:31;;;;;;;17.00;7.60;;;13.80;99.90;;;;;;5078321;28;20180;-87
2021/10/30 04:56:57;;;;;;;14.03;7.27;;;13.80;99.90;;;;;;5076833;28;20714;-87
2021/10/30 04:59:22;;;;;;;12.93;7.33;;;13.80;99.90;;;;;;5072754;28;20211;-87
2021/10/30 05:01:50;;;;;;;15.33;7.07;;;13.90;99.90;;;;;;5077843;28;20173;-86
2021/10/30 05:04:16;;;;;;;14.33;6.93;;;13.90;99.90;;;;;;5060681;28;20177;-87
2021/10/30 05:06:42;;;;;;;13.57;7.47;;;13.90;99.90;;;;;;5061802;28;20177;-88
2021/10/30 05:09:07;;;;;;;14.90;7.83;;;13.90;99.90;;;;;;5062369;28;20701;-87
2021/10/30 05:11:33;;;;;;;12.20;7.13;;;13.90;99.90;;;;;;5060167;28;20615;-87
2021/10/30 05:13:59;;;;;;;18.43;6.83;;;14.00;99.90;;;;;;5076633;28;20188;-88
2021/10/30 05:16:25;;;;;;;15.80;7.10;;;13.90;99.90;;;;;;5074839;28;20188;-87
2021/10/30 05:18:52;;;;;;;13.67;6.77;;;13.90;99.90;;;;;;5058215;28;20660;-88
2021/10/30 05:21:18;;;;;;;14.27;6.97;;;14.00;99.90;;;;;;5086766;28;20185;-88
2021/10/30 05:23:44;;;;;;;12.50;6.80;;;14.00;99.90;;;;;;5056753;28;20296;-88
2021/10/30 05:26:10;;;;;;;14.77;7.37;;;14.00;99.90;;;;;;5075304;28;20295;-87
2021/10/30 05:28:36;;;;;;;13.60;7.47;;;14.00;99.90;;;;;;5075278;28;20228;-87
2021/10/30 05:31:02;;;;;;;12.63;6.60;;;14.00;99.90;;;;;;5075012;28;20185;-86
2021/10/30 05:33:28;;;;;;;14.43;7.10;;;13.90;99.90;;;;;;5067952;28;20192;-86
2021/10/30 05:36:13;;;;;;;14.80;6.67;;;13.90;99.90;;;;;;5089586;28;20276;-88
2021/10/30 05:38:52;;;;;;;13.77;6.40;;;14.00;99.90;;;;;;5052018;28;20706;-87
2021/10/30 05:41:18;;;;;;;12.87;6.93;;;14.00;99.90;;;;;;5072176;28;20636;-87
2021/10/30 05:43:44;;;;;;;13.33;7.07;;;14.00;99.90;;;;;;5072692;28;20215;-87
2021/10/30 05:46:11;;;;;;;14.03;6.57;;;14.00;99.90;;;;;;5057157;28;20184;-88
2021/10/30 05:48:37;;;;;;;14.70;6.47;;;14.00;99.90;;;;;;5071990;28;20180;-87
2021/10/30 05:51:05;;;;;;;14.73;7.10;;;14.00;99.90;;;;;;5065966;28;20669;-87
2021/10/30 05:53:31;;;;;;;13.60;6.90;;;14.00;99.90;;;;;;5076454;28;20287;-87
2021/10/30 05:55:57;;;;;;;14.50;6.93;;;14.00;99.90;;;;;;5069598;28;20180;-87
2021/10/30 05:58:23;;;;;;;13.13;6.23;;;14.00;99.90;;;;;;5059648;28;20308;-87
2021/10/30 06:00:49;;;;;;;12.67;6.50;;;13.90;99.90;;;;;;5070271;28;20182;-86
2021/10/30 06:03:14;;;;;;;12.53;6.60;;;13.90;99.90;;;;;;5053868;28;20231;-89
2021/10/30 06:05:40;;;;;;;13.90;6.47;;;13.90;99.90;;;;;;5078277;28;20266;-89
2021/10/30 06:08:06;;;;;;;12.93;6.40;;;13.90;99.90;;;;;;5078486;28;20188;-87
2021/10/30 06:10:34;;;;;;;12.63;6.60;;;13.90;99.90;;;;;;5058867;28;20180;-89
2021/10/30 06:13:00;;;;;;;15.43;6.70;;;13.90;99.90;;;;;;5062406;28;20560;-88
2021/10/30 06:15:26;;;;;;;13.80;6.70;;;13.90;99.90;;;;;;5076802;28;20274;-88
2021/10/30 06:17:51;;;;;;;10.33;5.97;;;13.90;99.90;;;;;;5077463;28;20185;-87
2021/10/30 06:20:17;;;;;;;11.93;6.40;;;14.00;99.90;;;;;;5064337;28;20188;-89
2021/10/30 06:22:43;;;;;;;12.53;5.90;;;14.00;99.90;;;;;;5076057;28;20207;-87
2021/10/30 06:25:13;;;;;;;9.30;5.90;;;14.00;99.90;;;;;;5078781;28;20376;-88
2021/10/30 06:27:40;;;;;;;13.60;5.90;;;14.00;99.90;;;;;;5075795;28;20294;-87
2021/10/30 06:30:07;;;;;;;12.97;6.30;;;14.10;99.90;;;;;;5060119;28;20246;-87
2021/10/30 06:32:33;;;;;;;13.47;6.40;;;14.10;99.90;;;;;;5074861;28;21209;-88
2021/10/30 06:34:59;;;;;;;12.87;5.97;;;14.10;99.90;;;;;;5061197;28;20189;-87
2021/10/30 06:37:26;;;;;;;10.00;5.80;;;14.00;99.90;;;;;;5076050;28;20215;-87
2021/10/30 06:39:51;;;;;;;13.77;5.80;;;13.90;99.90;;;;;;5075399;28;20267;-87
2021/10/30 06:42:17;;;;;;;10.53;5.43;;;13.90;99.90;;;;;;5076199;28;20291;-86
2021/10/30 06:44:45;;;;;;;10.90;5.40;;;13.80;99.90;;;;;;5076632;28;20666;-87
2021/10/30 06:47:12;;;;;;;11.40;5.10;;;13.80;99.90;;;;;;5077329;28;20271;-87
2021/10/30 06:49:38;;;;;;;12.50;5.50;;;13.80;99.90;;;;;;5080065;28;20634;-87
2021/10/30 06:52:06;;;;;;;13.47;4.80;;;13.90;99.90;;;;;;5092208;28;20208;-87
2021/10/30 06:54:32;;;;;;;11.67;5.20;;;13.90;99.90;;;;;;5059239;28;20202;-86
2021/10/30 06:56:58;;;;;;;9.77;4.87;;;13.90;99.90;;;;;;5074532;28;20271;-88
2021/10/30 06:59:23;;;;;;;11.50;4.40;;;13.90;99.90;;;;;;5064344;28;20633;-88
2021/10/30 07:01:49;;;;;;;9.43;4.83;;;13.90;99.90;;;;;;5064170;28;20207;-86
2021/10/30 07:04:15;;;;;;;10.43;4.53;;;13.90;99.90;;;;;;5059751;28;20800;-87
2021/10/30 07:06:41;;;;;;;9.83;4.27;;;14.00;99.90;;;;;;5084824;28;20278;-88
2021/10/30 07:09:07;;;;;;;8.60;4.03;;;14.10;99.90;;;;;;5059135;28;20189;-87
2021/10/30 07:11:36;;;;;;;7.53;4.33;;;14.00;99.90;;;;;;5073289;28;20606;-88
2021/10/30 07:14:02;;;;;;;9.57;4.47;;;14.00;99.90;;;;;;5058523;28;20222;-86
2021/10/30 07:16:29;;;;;;;10.73;5.13;;;14.00;99.90;;;;;;5059401;28;20180;-85
2021/10/30 07:18:54;;;;;;;9.53;4.37;;;13.90;99.90;;;;;;5068937;28;20180;-89
2021/10/30 07:21:20;;;;;;;9.33;4.60;;;13.90;99.90;;;;;;5073856;28;20184;-89
2021/10/30 07:23:46;;;;;;;10.03;4.70;;;13.90;99.90;;;;;;5059558;28;20219;-88
2021/10/30 07:26:12;;;;;;;12.60;4.57;;;13.90;99.90;;;;;;5074713;28;20185;-90
2021/10/30 07:28:39;;;;;;;9.10;4.50;;;14.00;99.90;;;;;;5057138;28;20250;-88
2021/10/30 07:31:08;;;;;;;10.47;4.97;;;14.00;99.90;;;;;;5060048;28;20661;-89
2021/10/30 07:33:34;;;;;;;10.30;4.73;;;14.00;99.90;;;;;;5074449;28;20248;-86
2021/10/30 07:36:00;;;;;;;12.73;5.37;;;14.00;99.90;;;;;;5059311;28;20276;-88
2021/10/30 07:38:26;;;;;;;10.67;4.73;;;14.00;99.90;;;;;;5075324;28;20237;-87
2021/10/30 07:40:51;;;;;;;12.03;5.13;;;14.10;99.90;;;;;;5075788;28;20181;-87
2021/10/30 07:43:18;;;;;;;10.37;4.73;;;14.00;99.90;;;;;;5058333;28;20299;-87
2021/10/30 07:45:44;;;;;;;10.90;5.07;;;14.00;99.90;;;;;;5076441;28;20176;-87
2021/10/30 07:48:09;;;;;;;11.27;5.43;;;14.10;99.90;;;;;;5058309;28;20525;-88
2021/10/30 07:50:35;;;;;;;10.90;5.17;;;14.10;99.90;;;;;;5051043;28;20662;-88
2021/10/30 07:53:02;;;;;;;11.27;4.90;;;14.00;99.90;;;;;;5056066;28;20191;-87
2021/10/30 07:55:28;;;;;;;9.13;4.40;;;14.10;99.90;;;;;;5054749;28;20192;-87
2021/10/30 07:57:54;;;;;;;11.07;4.77;;;14.10;99.90;;;;;;5071287;28;20195;-86
2021/10/30 08:00:20;;;;;;;12.37;4.77;;;14.00;99.90;;;;;;5054117;28;20556;-86
2021/10/30 08:02:46;;;;;;;8.67;4.43;;;14.10;99.90;;;;;;5089509;28;20207;-86
2021/10/30 08:05:12;;;;;;;8.50;4.60;;;14.10;99.90;;;;;;5053972;28;20295;-87
2021/10/30 08:07:39;;;;;;;11.63;4.90;;;14.10;99.90;;;;;;5055157;28;20182;-87
2021/10/30 08:10:07;;;;;;;8.30;4.03;;;14.10;99.90;;;;;;5054690;28;20275;-88
2021/10/30 08:12:33;;;;;;;8.80;4.57;;;14.10;99.90;;;;;;5053404;28;20238;-87
2021/10/30 08:15:00;;;;;;;7.60;3.93;;;14.10;99.90;;;;;;5070972;28;20274;-88
2021/10/30 08:17:26;;;;;;;8.93;4.20;;;14.10;99.90;;;;;;5089204;28;20190;-86
2021/10/30 08:19:52;;;;;;;8.03;3.80;;;14.00;99.90;;;;;;5074104;28;20188;-88
2021/10/30 08:22:18;;;;;;;8.93;4.20;;;14.00;99.90;;;;;;5074386;28;20208;-88
2021/10/30 08:24:46;;;;;;;9.03;3.50;;;14.10;99.90;;;;;;5072039;28;20565;-87
2021/10/30 08:27:13;;;;;;;11.43;3.73;;;14.00;99.90;;;;;;5056262;28;20187;-88
2021/10/30 08:29:41;;;;;;;11.50;4.30;;;14.10;99.90;;;;;;5076901;28;20184;-87
2021/10/30 08:32:08;;;;;;;7.87;3.70;;;14.10;99.90;;;;;;5074506;28;20187;-87
2021/10/30 08:34:34;;;;;;;10.03;4.70;;;14.10;99.90;;;;;;5073807;28;20184;-88
2021/10/30 08:37:00;;;;;;;7.80;3.33;;;14.10;99.90;;;;;;5062617;28;20274;-88
2021/10/30 08:39:25;;;;;;;7.63;3.50;;;14.10;99.90;;;;;;5075659;28;20318;-86
2021/10/30 08:41:51;;;;;;;7.23;3.37;;;14.10;99.90;;;;;;5077944;28;20242;-87
2021/10/30 08:44:19;;;;;;;7.47;3.93;;;14.10;99.90;;;;;;5077841;28;20210;-86
2021/10/30 08:46:45;;;;;;;8.30;3.70;;;14.10;99.90;;;;;;5078329;28;20194;-87
2021/10/30 08:49:12;;;;;;;7.33;3.63;;;14.10;99.90;;;;;;5061269;28;20713;-86
2021/10/30 08:51:40;;;;;;;7.10;3.73;;;14.10;99.90;;;;;;5061543;28;20187;-88
2021/10/30 08:54:06;;;;;;;9.33;4.37;;;14.10;99.90;;;;;;5061194;28;20189;-88
2021/10/30 08:56:35;;;;;;;8.20;3.97;;;14.20;99.90;;;;;;5079573;28;20196;-88
2021/10/30 08:59:01;;;;;;;7.57;3.97;;;14.20;99.90;;;;;;5060690;28;20640;-88
2021/10/30 09:01:27;;;;;;;7.57;3.70;;;14.20;99.90;;;;;;5078078;28;20200;-88
2021/10/30 09:03:58;;;;;;;8.67;4.07;;;14.20;99.90;;;;;;5061107;28;20204;-88
2021/10/30 09:06:45;;;;;;;9.87;4.20;;;14.20;99.90;;;;;;5063694;28;20650;-89
2021/10/30 09:09:16;;;;;;;8.67;3.90;;;14.20;99.90;;;;;;5078772;28;20198;-88
2021/10/30 09:11:51;;;;;;;8.80;4.30;;;14.20;99.90;;;;;;5077064;28;20724;-88
2021/10/30 09:14:19;;;;;;;9.50;4.00;;;14.20;99.90;;;;;;5060491;28;20237;-90
2021/10/30 09:17:15;;;;;;;7.83;3.67;;;14.20;99.90;;;;;;5076825;28;20195;-90
2021/10/30 09:19:47;;;;;;;7.97;3.50;;;14.20;99.90;;;;;;5076821;28;20646;-88
2021/10/30 09:22:15;;;;;;;8.33;3.80;;;14.30;99.90;;;;;;5077060;28;20197;-89
2021/10/30 09:24:57;;;;;;;5.83;3.00;;;14.30;99.90;;;;;;5077344;28;20176;-89
2021/10/30 09:27:48;;;;;;;10.20;4.40;;;14.30;99.90;;;;;;5086249;28;20184;-89
2021/10/30 09:30:16;;;;;;;9.10;3.90;;;14.30;99.90;;;;;;5059489;28;20198;-88
2021/10/30 09:32:57;;;;;;;9.63;3.67;;;14.20;99.90;;;;;;5061947;28;20184;-88
2021/10/30 09:35:41;;;;;;;7.47;3.43;;;14.20;99.90;;;;;;5061650;28;20665;-89
2021/10/30 09:38:09;;;;;;;7.00;3.23;;;14.30;99.90;;;;;;5061303;28;20303;-89
2021/10/30 09:40:35;;;;;;;6.13;3.23;;;14.30;99.90;;;;;;5080745;28;20192;-88
2021/10/30 09:43:13;;;;;;;7.47;3.70;;;14.40;99.90;;;;;;5079256;28;20216;-88
2021/10/30 09:45:45;;;;;;;6.20;3.00;;;14.40;99.90;;;;;;5077980;28;20184;-88
2021/10/30 09:48:12;;;;;;;7.63;3.03;;;14.50;99.90;;;;;;5076086;28;20208;-89
2021/10/30 09:50:39;;;;;;;6.43;3.07;;;14.50;99.90;;;;;;5076171;28;20184;-88
2021/10/30 09:53:31;;;;;;;6.27;3.40;;;14.60;99.90;;;;;;5077092;28;20414;-87
2021/10/30 09:55:59;;;;;;;7.57;3.10;;;14.80;99.90;;;;;;5076750;28;20217;-89
2021/10/30 09:58:36;;;;;;;5.73;2.60;;;14.80;99.90;;;;;;5078261;28;20174;-87
2021/10/30 10:01:08;;;;;;;7.93;2.70;;;14.80;99.90;;;;;;5078796;28;20184;-87
2021/10/30 10:03:35;;;;;;;5.80;2.33;;;15.00;99.90;;;;;;5059322;28;20205;-88
2021/10/30 10:06:03;;;;;;;3.97;2.30;;;15.10;99.90;;;;;;5061902;28;20266;-87
2021/10/30 10:08:31;;;;;;;6.37;2.17;;;15.20;99.90;;;;;;5092736;28;20183;-90
2021/10/30 10:10:59;;;;;;;5.63;2.60;;;15.10;99.90;;;;;;5070760;28;20247;-88
2021/10/30 10:13:39;;;;;;;4.93;2.27;;;15.20;99.90;;;;;;5078210;28;20635;-88
2021/10/30 10:16:14;;;;;;;4.50;2.30;;;15.30;99.90;;;;;;5077974;28;20278;-88
2021/10/30 10:18:41;;;;;;;5.20;2.47;;;15.40;99.90;;;;;;5076744;28;20186;-87
2021/10/30 10:21:13;;;;;;;5.70;2.37;;;15.30;99.90;;;;;;5063081;28;20191;-88
2021/10/30 10:23:41;;;;;;;4.13;2.30;;;15.30;99.90;;;;;;5075138;28;20680;-87
2021/10/30 10:26:06;;;;;;;4.40;2.17;;;15.50;99.90;;;;;;5094520;28;20265;-88
2021/10/30 10:28:34;;;;;;;5.33;2.27;;;15.50;99.90;;;;;;5075430;28;20222;-89
2021/10/30 10:31:11;;;;;;;3.63;1.80;;;15.60;99.90;;;;;;5078008;28;20217;-88
2021/10/30 10:33:41;;;;;;;4.00;1.70;;;15.50;99.90;;;;;;5061076;28;20188;-88
2021/10/30 10:36:20;;;;;;;4.40;1.87;;;15.40;99.90;;;;;;5075704;28;20331;-89
2021/10/30 10:38:58;;;;;;;5.13;1.80;;;15.40;99.90;;;;;;5076645;28;20227;-89
2021/10/30 10:41:44;;;;;;;3.60;1.73;;;15.40;99.90;;;;;;5062625;28;20598;-89
2021/10/30 10:44:27;;;;;;;4.07;1.80;;;15.60;99.90;;;;;;5058031;28;20239;-87
2021/10/30 10:46:59;;;;;;;3.47;1.80;;;15.70;99.90;;;;;;5073980;28;20194;-89
2021/10/30 10:54:56;;;;;;;3.60;1.60;;;16.10;99.90;;;;;;5075778;28;20187;-89
2021/10/30 10:57:33;;;;;;;3.10;1.70;;;16.10;99.90;;;;;;5077472;28;20675;-88
2021/10/30 11:00:17;;;;;;;3.73;1.63;;;16.00;99.90;;;;;;5061355;28;20217;-88
2021/10/30 11:02:48;;;;;;;2.60;1.40;;;16.00;99.90;;;;;;5075094;28;20210;-88
2021/10/30 11:05:23;;;;;;;3.03;1.40;;;16.10;99.90;;;;;;5067117;28;20193;-89
2021/10/30 11:07:49;;;;;;;5.80;1.47;;;16.20;99.90;;;;;;5065961;28;20183;-88
2021/10/30 11:10:30;;;;;;;3.13;1.37;;;16.20;99.90;;;;;;5069857;28;20188;-88
2021/10/30 11:13:01;;;;;;;2.77;1.60;;;16.00;99.90;;;;;;5086794;28;20754;-87
2021/10/30 11:15:39;;;;;;;3.90;1.80;;;16.00;99.90;;;;;;5059192;28;20204;-88
2021/10/30 11:18:11;;;;;;;3.97;1.70;;;16.20;99.90;;;;;;5074900;28;20300;-87
2021/10/30 11:20:44;;;;;;;6.10;1.83;;;16.20;99.90;;;;;;5071392;28;20199;-88
2021/10/30 11:23:15;;;;;;;2.73;1.60;;;16.40;99.90;;;;;;5058164;28;20229;-87
2021/10/30 11:25:41;;;;;;;3.57;1.50;;;16.50;99.90;;;;;;5055349;28;20192;-88
2021/10/30 11:28:07;;;;;;;4.17;1.53;;;16.30;99.90;;;;;;5074696;28;20561;-89
2021/10/30 11:30:38;;;;;;;4.07;1.70;;;16.10;99.90;;;;;;5073113;28;20182;-89
2021/10/30 11:33:24;;;;;;;3.57;1.60;;;16.00;99.90;;;;;;5075876;28;20190;-87
2021/10/30 11:36:02;;;;;;;3.70;1.80;;;15.80;99.90;;;;;;5058047;28;20178;-88
2021/10/30 11:38:31;;;;;;;2.97;1.47;;;15.70;99.90;;;;;;5073401;28;20241;-89
2021/10/30 11:40:59;;;;;;;2.40;1.40;;;15.70;99.90;;;;;;5075222;28;20186;-88
2021/10/30 11:43:30;;;;;;;4.60;1.60;;;15.80;99.90;;;;;;5072836;28;20210;-88
2021/10/30 11:46:07;;;;;;;2.23;1.40;;;15.90;99.90;;;;;;5057882;28;20221;-89
2021/10/30 11:48:50;;;;;;;5.43;1.50;;;16.00;99.90;;;;;;5056921;28;20193;-88
2021/10/30 11:51:21;;;;;;;3.73;1.67;;;16.10;99.90;;;;;;5076466;28;20593;-87
2021/10/30 11:53:49;;;;;;;3.03;1.63;;;16.10;99.90;;;;;;5091649;28;20194;-87
2021/10/30 11:56:16;;;;;;;3.77;1.30;;;16.10;99.90;;;;;;5090871;28;20221;-89
2021/10/30 11:58:50;;;;;;;2.77;1.30;;;16.10;99.90;;;;;;5075856;28;20193;-87
2021/10/30 12:01:24;;;;;;;3.53;1.40;;;16.20;99.90;;;;;;5073157;28;20194;-88
2021/10/30 12:04:00;;;;;;;2.87;1.60;;;16.30;99.90;;;;;;5073784;28;20217;-87
2021/10/30 12:06:27;;;;;;;2.10;1.30;;;16.20;99.90;;;;;;5073859;28;20659;-86
2021/10/30 12:08:56;;;;;;;2.07;1.40;;;16.30;99.90;;;;;;5075769;28;20189;-88
2021/10/30 12:11:26;;;;;;;2.63;1.33;;;16.40;99.90;;;;;;5060455;28;20190;-87
2021/10/30 12:13:56;;;;;;;2.70;1.40;;;16.40;99.90;;;;;;5057668;28;20198;-87
2021/10/30 12:16:22;;;;;;;3.90;1.47;;;16.30;99.90;;;;;;5063967;28;20211;-87
2021/10/30 12:18:48;;;;;;;2.67;1.33;;;16.30;99.90;;;;;;5088218;28;20187;-87
2021/10/30 12:21:15;;;;;;;2.47;1.27;;;16.30;99.90;;;;;;5045053;28;20560;-86
2021/10/30 12:23:58;;;;;;;2.63;1.20;;;16.20;99.90;;;;;;5078813;28;20207;-87
2021/10/30 12:26:28;;;;;;;2.57;1.40;;;16.20;99.90;;;;;;5078827;28;20587;-86
2021/10/30 12:29:14;;;;;;;2.40;1.30;;;16.30;99.90;;;;;;5061977;28;20665;-86
2021/10/30 12:32:03;;;;;;;5.20;1.80;;;16.30;99.90;;;;;;5061447;28;20171;-86
2021/10/30 12:34:31;;;;;;;3.23;1.47;;;16.30;99.90;;;;;;5063064;28;20195;-86
2021/10/30 12:36:58;;;;;;;5.37;1.67;;;16.40;99.90;;;;;;5063064;28;20657;-87
2021/10/30 12:39:25;;;;;;;5.70;1.70;;;16.50;99.90;;;;;;5066294;28;20194;-87
2021/10/30 12:42:00;;;;;;;4.40;1.40;;;16.70;99.90;;;;;;5080562;28;20666;-88
2021/10/30 12:44:32;;;;;;;4.03;1.60;;;16.80;99.90;;;;;;5076699;28;20301;-87
2021/10/30 12:47:01;;;;;;;3.40;1.30;;;16.80;99.90;;;;;;5067632;28;20197;-89
2021/10/30 12:49:32;;;;;;;3.87;1.30;;;16.90;99.90;;;;;;5059356;28;20179;-87
2021/10/30 12:52:05;;;;;;;2.80;1.40;;;16.70;99.90;;;;;;5077540;28;20189;-88